sensor_id;sensor_type;location;lat;lon;timestamp;temperature;humidity
66722;SHT31;53633;49.932;10.884;2023-08-08T00:01:21;12.22;90.37
66722;SHT31;53633;49.932;10.884;2023-08-08T00:03:48;12.11;90.69
66722;SHT31;53633;49.932;10.884;2023-08-08T00:06:17;12.01;90.95
66722;SHT31;53633;49.932;10.884;2023-08-08T00:08:43;12.02;90.98
66722;SHT31;53633;49.932;10.884;2023-08-08T00:11:10;12.06;91.02
66722;SHT31;53633;49.932;10.884;2023-08-08T00:13:37;11.98;91.32
66722;SHT31;53633;49.932;10.884;2023-08-08T00:16:04;11.95;91.57
66722;SHT31;53633;49.932;10.884;2023-08-08T00:18:30;11.98;91.75
66722;SHT31;53633;49.932;10.884;2023-08-08T00:20:57;12.05;91.59
66722;SHT31;53633;49.932;10.884;2023-08-08T00:23:25;12.05;91.58
66722;SHT31;53633;49.932;10.884;2023-08-08T00:25:52;12.02;91.44
66722;SHT31;53633;49.932;10.884;2023-08-08T00:28:19;12.02;91.71
66722;SHT31;53633;49.932;10.884;2023-08-08T00:30:46;11.88;91.95
66722;SHT31;53633;49.932;10.884;2023-08-08T00:33:12;11.84;92.18
66722;SHT31;53633;49.932;10.884;2023-08-08T00:35:39;11.85;92.33
66722;SHT31;53633;49.932;10.884;2023-08-08T00:38:06;11.73;92.73
66722;SHT31;53633;49.932;10.884;2023-08-08T00:40:34;11.77;92.62
66722;SHT31;53633;49.932;10.884;2023-08-08T00:43:01;11.67;92.96
66722;SHT31;53633;49.932;10.884;2023-08-08T00:45:28;11.60;93.38
66722;SHT31;53633;49.932;10.884;2023-08-08T00:47:54;11.61;93.40
66722;SHT31;53633;49.932;10.884;2023-08-08T00:50:22;11.66;93.34
66722;SHT31;53633;49.932;10.884;2023-08-08T00:52:49;11.67;93.46
66722;SHT31;53633;49.932;10.884;2023-08-08T00:55:16;11.73;93.33
66722;SHT31;53633;49.932;10.884;2023-08-08T00:57:45;11.80;93.36
66722;SHT31;53633;49.932;10.884;2023-08-08T01:00:12;11.91;93.13
66722;SHT31;53633;49.932;10.884;2023-08-08T01:02:39;12.01;92.74
66722;SHT31;53633;49.932;10.884;2023-08-08T01:05:06;12.06;92.43
66722;SHT31;53633;49.932;10.884;2023-08-08T01:07:38;12.12;92.13
66722;SHT31;53633;49.932;10.884;2023-08-08T01:10:10;12.06;92.23
66722;SHT31;53633;49.932;10.884;2023-08-08T01:12:41;12.04;92.56
66722;SHT31;53633;49.932;10.884;2023-08-08T01:15:10;12.12;92.26
66722;SHT31;53633;49.932;10.884;2023-08-08T01:17:38;12.14;92.13
66722;SHT31;53633;49.932;10.884;2023-08-08T01:20:07;12.01;92.60
66722;SHT31;53633;49.932;10.884;2023-08-08T01:22:38;12.01;92.70
66722;SHT31;53633;49.932;10.884;2023-08-08T01:25:08;12.05;92.54
66722;SHT31;53633;49.932;10.884;2023-08-08T01:27:36;12.02;92.34
66722;SHT31;53633;49.932;10.884;2023-08-08T01:30:03;12.01;92.28
66722;SHT31;53633;49.932;10.884;2023-08-08T01:32:30;12.06;92.05
66722;SHT31;53633;49.932;10.884;2023-08-08T01:34:57;12.05;91.78
66722;SHT31;53633;49.932;10.884;2023-08-08T01:37:29;11.95;91.96
66722;SHT31;53633;49.932;10.884;2023-08-08T01:39:56;11.94;92.24
66722;SHT31;53633;49.932;10.884;2023-08-08T01:42:26;11.91;92.23
66722;SHT31;53633;49.932;10.884;2023-08-08T01:44:54;11.98;92.30
66722;SHT31;53633;49.932;10.884;2023-08-08T01:47:22;12.02;92.06
66722;SHT31;53633;49.932;10.884;2023-08-08T01:49:49;11.97;92.07
66722;SHT31;53633;49.932;10.884;2023-08-08T01:52:15;11.97;92.05
66722;SHT31;53633;49.932;10.884;2023-08-08T01:54:42;12.05;92.01
66722;SHT31;53633;49.932;10.884;2023-08-08T01:57:09;12.05;91.85
66722;SHT31;53633;49.932;10.884;2023-08-08T01:59:37;12.06;91.99
66722;SHT31;53633;49.932;10.884;2023-08-08T02:02:04;12.12;92.05
66722;SHT31;53633;49.932;10.884;2023-08-08T02:04:31;12.04;92.15
66722;SHT31;53633;49.932;10.884;2023-08-08T02:06:58;11.97;92.53
66722;SHT31;53633;49.932;10.884;2023-08-08T02:09:24;11.95;92.72
66722;SHT31;53633;49.932;10.884;2023-08-08T02:11:51;12.01;92.64
66722;SHT31;53633;49.932;10.884;2023-08-08T02:14:18;11.95;92.63
66722;SHT31;53633;49.932;10.884;2023-08-08T02:16:46;12.01;92.66
66722;SHT31;53633;49.932;10.884;2023-08-08T02:19:12;12.04;92.54
66722;SHT31;53633;49.932;10.884;2023-08-08T02:21:39;12.18;92.07
66722;SHT31;53633;49.932;10.884;2023-08-08T02:24:06;12.21;91.78
66722;SHT31;53633;49.932;10.884;2023-08-08T02:26:33;12.21;91.57
66722;SHT31;53633;49.932;10.884;2023-08-08T02:28:59;12.15;91.50
66722;SHT31;53633;49.932;10.884;2023-08-08T02:31:26;12.08;91.73
66722;SHT31;53633;49.932;10.884;2023-08-08T02:33:54;12.22;91.54
66722;SHT31;53633;49.932;10.884;2023-08-08T02:36:21;12.16;91.56
66722;SHT31;53633;49.932;10.884;2023-08-08T02:38:47;12.33;90.97
66722;SHT31;53633;49.932;10.884;2023-08-08T02:41:14;12.37;90.58
66722;SHT31;53633;49.932;10.884;2023-08-08T02:43:41;12.32;90.64
66722;SHT31;53633;49.932;10.884;2023-08-08T02:46:08;12.19;90.87
66722;SHT31;53633;49.932;10.884;2023-08-08T02:48:34;12.19;90.93
66722;SHT31;53633;49.932;10.884;2023-08-08T02:51:02;12.04;91.16
66722;SHT31;53633;49.932;10.884;2023-08-08T02:53:29;11.94;91.81
66722;SHT31;53633;49.932;10.884;2023-08-08T02:55:56;11.95;91.68
66722;SHT31;53633;49.932;10.884;2023-08-08T02:58:23;12.02;91.52
66722;SHT31;53633;49.932;10.884;2023-08-08T03:00:49;12.11;91.26
66722;SHT31;53633;49.932;10.884;2023-08-08T03:03:16;12.01;91.74
66722;SHT31;53633;49.932;10.884;2023-08-08T03:05:44;11.97;91.58
66722;SHT31;53633;49.932;10.884;2023-08-08T03:08:12;11.85;92.05
66722;SHT31;53633;49.932;10.884;2023-08-08T03:10:39;11.81;92.44
66722;SHT31;53633;49.932;10.884;2023-08-08T03:13:06;11.97;92.05
66722;SHT31;53633;49.932;10.884;2023-08-08T03:15:33;11.98;91.92
66722;SHT31;53633;49.932;10.884;2023-08-08T03:17:59;11.95;91.96
66722;SHT31;53633;49.932;10.884;2023-08-08T03:20:26;11.88;92.35
66722;SHT31;53633;49.932;10.884;2023-08-08T03:22:53;11.82;92.49
66722;SHT31;53633;49.932;10.884;2023-08-08T03:25:21;11.66;92.99
66722;SHT31;53633;49.932;10.884;2023-08-08T03:27:48;11.54;93.70
66722;SHT31;53633;49.932;10.884;2023-08-08T03:30:15;11.56;93.80
66722;SHT31;53633;49.932;10.884;2023-08-08T03:32:42;11.56;94.13
66722;SHT31;53633;49.932;10.884;2023-08-08T03:35:08;11.51;94.21
66722;SHT31;53633;49.932;10.884;2023-08-08T03:37:35;11.57;94.11
66722;SHT31;53633;49.932;10.884;2023-08-08T03:40:02;11.61;93.94
66722;SHT31;53633;49.932;10.884;2023-08-08T03:42:31;11.66;93.76
66722;SHT31;53633;49.932;10.884;2023-08-08T03:44:57;11.63;93.78
66722;SHT31;53633;49.932;10.884;2023-08-08T03:47:24;11.70;93.77
66722;SHT31;53633;49.932;10.884;2023-08-08T03:49:51;11.69;93.73
66722;SHT31;53633;49.932;10.884;2023-08-08T03:52:18;11.60;94.00
66722;SHT31;53633;49.932;10.884;2023-08-08T03:54:45;11.61;94.11
66722;SHT31;53633;49.932;10.884;2023-08-08T03:57:11;11.57;94.39
66722;SHT31;53633;49.932;10.884;2023-08-08T03:59:40;11.57;94.41
66722;SHT31;53633;49.932;10.884;2023-08-08T04:02:20;11.59;94.32
66722;SHT31;53633;49.932;10.884;2023-08-08T04:04:47;11.54;94.55
66722;SHT31;53633;49.932;10.884;2023-08-08T04:07:14;11.54;94.53
66722;SHT31;53633;49.932;10.884;2023-08-08T04:09:40;11.51;94.65
66722;SHT31;53633;49.932;10.884;2023-08-08T04:12:08;11.60;94.60
66722;SHT31;53633;49.932;10.884;2023-08-08T04:14:35;11.69;94.26
66722;SHT31;53633;49.932;10.884;2023-08-08T04:17:03;11.63;94.23
66722;SHT31;53633;49.932;10.884;2023-08-08T04:19:30;11.64;94.30
66722;SHT31;53633;49.932;10.884;2023-08-08T04:21:56;11.71;94.15
66722;SHT31;53633;49.932;10.884;2023-08-08T04:24:24;11.74;93.93
66722;SHT31;53633;49.932;10.884;2023-08-08T04:26:51;11.69;93.88
66722;SHT31;53633;49.932;10.884;2023-08-08T04:29:18;11.73;93.95
66722;SHT31;53633;49.932;10.884;2023-08-08T04:31:44;11.81;93.73
66722;SHT31;53633;49.932;10.884;2023-08-08T04:34:13;11.81;93.48
66722;SHT31;53633;49.932;10.884;2023-08-08T04:36:39;11.81;93.55
66722;SHT31;53633;49.932;10.884;2023-08-08T04:39:06;11.81;93.56
66722;SHT31;53633;49.932;10.884;2023-08-08T04:41:33;11.87;93.38
66722;SHT31;53633;49.932;10.884;2023-08-08T04:43:59;11.92;93.42
66722;SHT31;53633;49.932;10.884;2023-08-08T04:46:26;11.92;93.17
66722;SHT31;53633;49.932;10.884;2023-08-08T04:48:53;11.97;92.97
66722;SHT31;53633;49.932;10.884;2023-08-08T04:51:23;12.05;92.91
66722;SHT31;53633;49.932;10.884;2023-08-08T04:53:49;12.11;92.62
66722;SHT31;53633;49.932;10.884;2023-08-08T04:56:16;12.15;92.37
66722;SHT31;53633;49.932;10.884;2023-08-08T04:58:43;12.15;92.44
66722;SHT31;53633;49.932;10.884;2023-08-08T05:01:10;12.16;92.34
66722;SHT31;53633;49.932;10.884;2023-08-08T05:03:36;12.16;92.30
66722;SHT31;53633;49.932;10.884;2023-08-08T05:06:03;12.16;92.21
66722;SHT31;53633;49.932;10.884;2023-08-08T05:08:31;12.18;92.05
66722;SHT31;53633;49.932;10.884;2023-08-08T05:10:58;12.21;91.86
66722;SHT31;53633;49.932;10.884;2023-08-08T05:13:25;12.37;91.76
66722;SHT31;53633;49.932;10.884;2023-08-08T05:15:51;12.56;91.40
66722;SHT31;53633;49.932;10.884;2023-08-08T05:18:18;12.97;90.72
66722;SHT31;53633;49.932;10.884;2023-08-08T05:20:45;14.73;86.66
66722;SHT31;53633;49.932;10.884;2023-08-08T05:23:12;14.86;83.35
66722;SHT31;53633;49.932;10.884;2023-08-08T05:25:40;15.48;82.88
66722;SHT31;53633;49.932;10.884;2023-08-08T05:28:06;17.54;76.69
66722;SHT31;53633;49.932;10.884;2023-08-08T05:30:33;19.23;70.09
66722;SHT31;53633;49.932;10.884;2023-08-08T05:33:00;20.74;66.54
66722;SHT31;53633;49.932;10.884;2023-08-08T05:35:27;21.86;61.83
66722;SHT31;53633;49.932;10.884;2023-08-08T05:37:53;21.41;62.82
66722;SHT31;53633;49.932;10.884;2023-08-08T05:40:20;22.18;61.74
66722;SHT31;53633;49.932;10.884;2023-08-08T05:42:48;22.66;57.86
66722;SHT31;53633;49.932;10.884;2023-08-08T05:45:15;22.35;59.78
66722;SHT31;53633;49.932;10.884;2023-08-08T05:47:42;23.25;56.79
66722;SHT31;53633;49.932;10.884;2023-08-08T05:50:09;23.04;57.45
66722;SHT31;53633;49.932;10.884;2023-08-08T05:52:36;23.61;55.23
66722;SHT31;53633;49.932;10.884;2023-08-08T05:55:03;24.35;53.76
66722;SHT31;53633;49.932;10.884;2023-08-08T05:57:30;24.57;53.17
66722;SHT31;53633;49.932;10.884;2023-08-08T05:59:58;24.73;52.50
66722;SHT31;53633;49.932;10.884;2023-08-08T06:02:29;25.09;51.84
66722;SHT31;53633;49.932;10.884;2023-08-08T06:04:56;24.99;51.59
66722;SHT31;53633;49.932;10.884;2023-08-08T06:07:23;25.09;51.58
66722;SHT31;53633;49.932;10.884;2023-08-08T06:09:49;26.02;51.02
66722;SHT31;53633;49.932;10.884;2023-08-08T06:12:16;25.61;50.75
66722;SHT31;53633;49.932;10.884;2023-08-08T06:14:43;25.85;49.85
66722;SHT31;53633;49.932;10.884;2023-08-08T06:17:11;26.28;48.82
66722;SHT31;53633;49.932;10.884;2023-08-08T06:19:38;25.82;49.53
66722;SHT31;53633;49.932;10.884;2023-08-08T06:22:05;25.80;50.00
66722;SHT31;53633;49.932;10.884;2023-08-08T06:24:31;26.46;48.35
66722;SHT31;53633;49.932;10.884;2023-08-08T06:26:58;27.01;47.36
66722;SHT31;53633;49.932;10.884;2023-08-08T06:29:25;27.25;46.04
66722;SHT31;53633;49.932;10.884;2023-08-08T06:31:52;27.18;46.20
66722;SHT31;53633;49.932;10.884;2023-08-08T06:34:20;26.73;47.19
66722;SHT31;53633;49.932;10.884;2023-08-08T06:36:47;26.68;47.45
66722;SHT31;53633;49.932;10.884;2023-08-08T06:39:14;27.15;47.25
66722;SHT31;53633;49.932;10.884;2023-08-08T06:41:41;26.76;46.98
66722;SHT31;53633;49.932;10.884;2023-08-08T06:44:08;26.23;47.86
66722;SHT31;53633;49.932;10.884;2023-08-08T06:46:34;25.10;50.27
66722;SHT31;53633;49.932;10.884;2023-08-08T06:49:01;25.40;50.64
66722;SHT31;53633;49.932;10.884;2023-08-08T06:51:29;25.84;50.13
66722;SHT31;53633;49.932;10.884;2023-08-08T06:53:56;25.44;50.80
66722;SHT31;53633;49.932;10.884;2023-08-08T06:56:23;25.03;50.95
66722;SHT31;53633;49.932;10.884;2023-08-08T06:58:49;24.88;51.61
66722;SHT31;53633;49.932;10.884;2023-08-08T07:01:16;24.50;52.99
66722;SHT31;53633;49.932;10.884;2023-08-08T07:03:43;24.27;53.12
66722;SHT31;53633;49.932;10.884;2023-08-08T07:06:10;23.58;54.61
66722;SHT31;53633;49.932;10.884;2023-08-08T07:08:38;23.59;54.73
66722;SHT31;53633;49.932;10.884;2023-08-08T07:11:05;23.75;54.53
66722;SHT31;53633;49.932;10.884;2023-08-08T07:13:32;23.75;54.73
66722;SHT31;53633;49.932;10.884;2023-08-08T07:15:59;23.52;55.29
66722;SHT31;53633;49.932;10.884;2023-08-08T07:18:26;23.24;54.95
66722;SHT31;53633;49.932;10.884;2023-08-08T07:20:53;23.49;54.21
66722;SHT31;53633;49.932;10.884;2023-08-08T07:23:20;23.04;55.88
66722;SHT31;53633;49.932;10.884;2023-08-08T07:25:48;23.08;55.62
66722;SHT31;53633;49.932;10.884;2023-08-08T07:28:17;23.44;55.39
66722;SHT31;53633;49.932;10.884;2023-08-08T07:30:44;23.20;54.82
66722;SHT31;53633;49.932;10.884;2023-08-08T07:33:11;23.61;55.03
66722;SHT31;53633;49.932;10.884;2023-08-08T07:35:38;23.75;55.63
66722;SHT31;53633;49.932;10.884;2023-08-08T07:38:05;23.68;55.62
66722;SHT31;53633;49.932;10.884;2023-08-08T07:40:32;23.28;55.83
66722;SHT31;53633;49.932;10.884;2023-08-08T07:43:00;23.73;54.98
66722;SHT31;53633;49.932;10.884;2023-08-08T07:45:26;23.89;54.15
66722;SHT31;53633;49.932;10.884;2023-08-08T07:47:53;24.16;52.16
66722;SHT31;53633;49.932;10.884;2023-08-08T07:50:20;23.79;52.93
66722;SHT31;53633;49.932;10.884;2023-08-08T07:52:47;24.50;51.82
66722;SHT31;53633;49.932;10.884;2023-08-08T07:55:14;23.79;52.02
66722;SHT31;53633;49.932;10.884;2023-08-08T07:57:40;24.38;52.15
66722;SHT31;53633;49.932;10.884;2023-08-08T08:00:09;23.69;52.09
66722;SHT31;53633;49.932;10.884;2023-08-08T08:02:37;23.65;52.86
66722;SHT31;53633;49.932;10.884;2023-08-08T08:05:04;24.10;52.02
66722;SHT31;53633;49.932;10.884;2023-08-08T08:07:32;24.73;51.35
66722;SHT31;53633;49.932;10.884;2023-08-08T08:09:59;24.44;50.82
66722;SHT31;53633;49.932;10.884;2023-08-08T08:12:25;24.12;52.19
66722;SHT31;53633;49.932;10.884;2023-08-08T08:14:52;24.24;52.25
66722;SHT31;53633;49.932;10.884;2023-08-08T08:17:20;22.84;53.29
66722;SHT31;53633;49.932;10.884;2023-08-08T08:19:47;23.10;53.87
66722;SHT31;53633;49.932;10.884;2023-08-08T08:22:14;23.22;52.78
66722;SHT31;53633;49.932;10.884;2023-08-08T08:24:41;23.35;52.20
66722;SHT31;53633;49.932;10.884;2023-08-08T08:27:08;23.15;51.99
66722;SHT31;53633;49.932;10.884;2023-08-08T08:29:35;23.65;51.91
66722;SHT31;53633;49.932;10.884;2023-08-08T08:32:01;23.75;52.68
66722;SHT31;53633;49.932;10.884;2023-08-08T08:34:30;23.45;52.86
66722;SHT31;53633;49.932;10.884;2023-08-08T08:36:57;23.31;53.21
66722;SHT31;53633;49.932;10.884;2023-08-08T08:39:24;23.00;51.86
66722;SHT31;53633;49.932;10.884;2023-08-08T08:41:54;22.86;52.40
66722;SHT31;53633;49.932;10.884;2023-08-08T08:44:26;23.35;52.49
66722;SHT31;53633;49.932;10.884;2023-08-08T08:46:54;23.86;50.34
66722;SHT31;53633;49.932;10.884;2023-08-08T08:49:22;24.92;49.40
66722;SHT31;53633;49.932;10.884;2023-08-08T08:51:51;25.37;46.51
66722;SHT31;53633;49.932;10.884;2023-08-08T08:54:19;25.60;45.55
66722;SHT31;53633;49.932;10.884;2023-08-08T08:56:46;25.68;45.86
66722;SHT31;53633;49.932;10.884;2023-08-08T08:59:13;24.43;47.51
66722;SHT31;53633;49.932;10.884;2023-08-08T09:01:40;24.23;48.27
66722;SHT31;53633;49.932;10.884;2023-08-08T09:04:07;23.25;50.27
66722;SHT31;53633;49.932;10.884;2023-08-08T09:06:35;22.96;51.07
66722;SHT31;53633;49.932;10.884;2023-08-08T09:09:04;23.28;51.34
66722;SHT31;53633;49.932;10.884;2023-08-08T09:11:43;23.96;51.65
66722;SHT31;53633;49.932;10.884;2023-08-08T09:14:18;24.62;49.33
66722;SHT31;53633;49.932;10.884;2023-08-08T09:16:46;24.18;47.94
66722;SHT31;53633;49.932;10.884;2023-08-08T09:19:14;23.65;48.90
66722;SHT31;53633;49.932;10.884;2023-08-08T09:21:40;22.92;50.10
66722;SHT31;53633;49.932;10.884;2023-08-08T09:24:09;22.55;51.83
66722;SHT31;53633;49.932;10.884;2023-08-08T09:26:36;22.80;50.16
66722;SHT31;53633;49.932;10.884;2023-08-08T09:29:03;22.86;48.14
66722;SHT31;53633;49.932;10.884;2023-08-08T09:31:30;22.65;48.62
66722;SHT31;53633;49.932;10.884;2023-08-08T09:33:58;23.13;49.10
66722;SHT31;53633;49.932;10.884;2023-08-08T09:36:25;23.07;47.69
66722;SHT31;53633;49.932;10.884;2023-08-08T09:38:52;22.87;47.60
66722;SHT31;53633;49.932;10.884;2023-08-08T09:41:20;22.92;48.31
66722;SHT31;53633;49.932;10.884;2023-08-08T09:43:47;22.52;49.29
66722;SHT31;53633;49.932;10.884;2023-08-08T09:46:14;22.62;49.58
66722;SHT31;53633;49.932;10.884;2023-08-08T09:48:41;22.73;50.11
66722;SHT31;53633;49.932;10.884;2023-08-08T09:51:09;23.02;47.64
66722;SHT31;53633;49.932;10.884;2023-08-08T09:53:36;23.41;48.14
66722;SHT31;53633;49.932;10.884;2023-08-08T09:56:04;23.73;47.06
66722;SHT31;53633;49.932;10.884;2023-08-08T09:58:33;23.66;46.54
66722;SHT31;53633;49.932;10.884;2023-08-08T10:01:00;23.15;46.72
66722;SHT31;53633;49.932;10.884;2023-08-08T10:03:27;23.20;45.96
66722;SHT31;53633;49.932;10.884;2023-08-08T10:05:54;23.93;47.01
66722;SHT31;53633;49.932;10.884;2023-08-08T10:08:21;23.73;46.03
66722;SHT31;53633;49.932;10.884;2023-08-08T10:10:50;24.13;45.72
66722;SHT31;53633;49.932;10.884;2023-08-08T10:13:20;24.55;44.81
66722;SHT31;53633;49.932;10.884;2023-08-08T10:15:49;24.20;44.78
66722;SHT31;53633;49.932;10.884;2023-08-08T10:18:16;24.28;44.43
66722;SHT31;53633;49.932;10.884;2023-08-08T10:20:44;24.14;44.89
66722;SHT31;53633;49.932;10.884;2023-08-08T10:23:11;23.85;44.99
66722;SHT31;53633;49.932;10.884;2023-08-08T10:25:43;23.90;44.81
66722;SHT31;53633;49.932;10.884;2023-08-08T10:28:12;23.93;44.42
66722;SHT31;53633;49.932;10.884;2023-08-08T10:30:55;23.80;45.18
66722;SHT31;53633;49.932;10.884;2023-08-08T10:33:23;23.42;45.86
66722;SHT31;53633;49.932;10.884;2023-08-08T10:36:00;23.73;44.89
66722;SHT31;53633;49.932;10.884;2023-08-08T10:38:39;23.83;45.04
66722;SHT31;53633;49.932;10.884;2023-08-08T10:41:09;24.33;45.65
66722;SHT31;53633;49.932;10.884;2023-08-08T10:43:36;24.07;44.96
66722;SHT31;53633;49.932;10.884;2023-08-08T10:46:04;23.21;45.66
66722;SHT31;53633;49.932;10.884;2023-08-08T10:48:49;23.15;46.14
66722;SHT31;53633;49.932;10.884;2023-08-08T10:51:17;23.30;46.18
66722;SHT31;53633;49.932;10.884;2023-08-08T10:53:45;22.93;45.85
66722;SHT31;53633;49.932;10.884;2023-08-08T10:56:13;22.73;46.62
66722;SHT31;53633;49.932;10.884;2023-08-08T10:58:41;22.86;47.13
66722;SHT31;53633;49.932;10.884;2023-08-08T11:01:10;23.20;47.45
66722;SHT31;53633;49.932;10.884;2023-08-08T11:03:38;23.00;46.54
66722;SHT31;53633;49.932;10.884;2023-08-08T11:06:08;23.15;45.47
66722;SHT31;53633;49.932;10.884;2023-08-08T11:08:36;23.10;45.16
66722;SHT31;53633;49.932;10.884;2023-08-08T11:11:03;23.04;45.73
66722;SHT31;53633;49.932;10.884;2023-08-08T11:13:30;23.45;44.54
66722;SHT31;53633;49.932;10.884;2023-08-08T11:15:57;23.85;44.13
66722;SHT31;53633;49.932;10.884;2023-08-08T11:18:25;23.69;44.23
66722;SHT31;53633;49.932;10.884;2023-08-08T11:20:52;23.58;44.10
66722;SHT31;53633;49.932;10.884;2023-08-08T11:23:27;23.96;44.58
66722;SHT31;53633;49.932;10.884;2023-08-08T11:25:54;23.72;44.30
66722;SHT31;53633;49.932;10.884;2023-08-08T11:28:24;24.18;43.86
66722;SHT31;53633;49.932;10.884;2023-08-08T11:30:51;24.10;44.21
66722;SHT31;53633;49.932;10.884;2023-08-08T11:33:17;23.83;43.68
66722;SHT31;53633;49.932;10.884;2023-08-08T11:35:46;23.86;44.18
66722;SHT31;53633;49.932;10.884;2023-08-08T11:38:13;23.34;44.53
66722;SHT31;53633;49.932;10.884;2023-08-08T11:40:40;23.04;46.26
66722;SHT31;53633;49.932;10.884;2023-08-08T11:43:08;23.54;44.32
66722;SHT31;53633;49.932;10.884;2023-08-08T11:45:34;23.54;43.65
66722;SHT31;53633;49.932;10.884;2023-08-08T11:48:01;23.24;44.31
66722;SHT31;53633;49.932;10.884;2023-08-08T11:50:28;23.18;44.37
66722;SHT31;53633;49.932;10.884;2023-08-08T11:52:56;22.67;46.26
66722;SHT31;53633;49.932;10.884;2023-08-08T11:55:27;22.80;45.96
66722;SHT31;53633;49.932;10.884;2023-08-08T11:57:55;22.83;44.88
66722;SHT31;53633;49.932;10.884;2023-08-08T12:00:26;23.06;45.64
66722;SHT31;53633;49.932;10.884;2023-08-08T12:02:53;23.03;45.53
66722;SHT31;53633;49.932;10.884;2023-08-08T12:05:21;23.03;46.31
66722;SHT31;53633;49.932;10.884;2023-08-08T12:07:48;23.14;45.88
66722;SHT31;53633;49.932;10.884;2023-08-08T12:10:19;23.25;45.39
66722;SHT31;53633;49.932;10.884;2023-08-08T12:12:47;22.60;45.26
66722;SHT31;53633;49.932;10.884;2023-08-08T12:15:19;22.65;45.65
66722;SHT31;53633;49.932;10.884;2023-08-08T12:17:46;22.89;46.01
66722;SHT31;53633;49.932;10.884;2023-08-08T12:20:14;23.00;45.36
66722;SHT31;53633;49.932;10.884;2023-08-08T12:22:42;23.38;44.80
66722;SHT31;53633;49.932;10.884;2023-08-08T12:25:08;23.18;44.75
66722;SHT31;53633;49.932;10.884;2023-08-08T12:27:37;23.34;44.79
66722;SHT31;53633;49.932;10.884;2023-08-08T12:30:05;23.30;44.20
66722;SHT31;53633;49.932;10.884;2023-08-08T12:32:31;23.30;42.55
66722;SHT31;53633;49.932;10.884;2023-08-08T12:34:58;23.06;43.85
66722;SHT31;53633;49.932;10.884;2023-08-08T12:37:25;23.62;44.57
66722;SHT31;53633;49.932;10.884;2023-08-08T12:39:52;23.76;43.76
66722;SHT31;53633;49.932;10.884;2023-08-08T12:42:18;23.61;44.02
66722;SHT31;53633;49.932;10.884;2023-08-08T12:44:47;23.37;43.91
66722;SHT31;53633;49.932;10.884;2023-08-08T12:47:13;23.47;44.25
66722;SHT31;53633;49.932;10.884;2023-08-08T12:49:41;23.28;44.81
66722;SHT31;53633;49.932;10.884;2023-08-08T12:52:08;23.21;44.76
66722;SHT31;53633;49.932;10.884;2023-08-08T12:54:35;23.54;44.21
66722;SHT31;53633;49.932;10.884;2023-08-08T12:57:02;23.54;43.69
66722;SHT31;53633;49.932;10.884;2023-08-08T12:59:29;23.59;44.30
66722;SHT31;53633;49.932;10.884;2023-08-08T13:01:58;23.52;44.05
66722;SHT31;53633;49.932;10.884;2023-08-08T13:04:25;23.52;44.39
66722;SHT31;53633;49.932;10.884;2023-08-08T13:06:52;23.51;46.09
66722;SHT31;53633;49.932;10.884;2023-08-08T13:09:19;23.62;44.92
66722;SHT31;53633;49.932;10.884;2023-08-08T13:11:46;23.82;44.98
66722;SHT31;53633;49.932;10.884;2023-08-08T13:14:12;23.76;44.76
66722;SHT31;53633;49.932;10.884;2023-08-08T13:16:39;23.34;45.29
66722;SHT31;53633;49.932;10.884;2023-08-08T13:19:07;23.51;44.77
66722;SHT31;53633;49.932;10.884;2023-08-08T13:21:34;23.68;45.55
66722;SHT31;53633;49.932;10.884;2023-08-08T13:24:01;23.38;45.67
66722;SHT31;53633;49.932;10.884;2023-08-08T13:26:28;23.28;45.30
66722;SHT31;53633;49.932;10.884;2023-08-08T13:28:54;23.21;45.91
66722;SHT31;53633;49.932;10.884;2023-08-08T13:31:21;23.08;45.54
66722;SHT31;53633;49.932;10.884;2023-08-08T13:33:48;22.92;45.29
66722;SHT31;53633;49.932;10.884;2023-08-08T13:36:16;22.75;45.50
66722;SHT31;53633;49.932;10.884;2023-08-08T13:38:43;23.08;45.51
66722;SHT31;53633;49.932;10.884;2023-08-08T13:41:09;22.99;45.00
66722;SHT31;53633;49.932;10.884;2023-08-08T13:43:36;22.76;45.65
66722;SHT31;53633;49.932;10.884;2023-08-08T13:46:03;22.79;45.17
66722;SHT31;53633;49.932;10.884;2023-08-08T13:48:30;22.86;45.15
66722;SHT31;53633;49.932;10.884;2023-08-08T13:50:57;22.97;45.33
66722;SHT31;53633;49.932;10.884;2023-08-08T13:53:25;22.84;45.74
66722;SHT31;53633;49.932;10.884;2023-08-08T13:55:51;22.84;45.62
66722;SHT31;53633;49.932;10.884;2023-08-08T13:58:18;23.03;45.86
66722;SHT31;53633;49.932;10.884;2023-08-08T14:00:45;23.13;44.61
66722;SHT31;53633;49.932;10.884;2023-08-08T14:03:12;22.86;45.10
66722;SHT31;53633;49.932;10.884;2023-08-08T14:05:40;22.87;45.42
66722;SHT31;53633;49.932;10.884;2023-08-08T14:08:09;22.77;45.53
66722;SHT31;53633;49.932;10.884;2023-08-08T14:10:37;22.97;45.15
66722;SHT31;53633;49.932;10.884;2023-08-08T14:13:04;23.04;45.21
66722;SHT31;53633;49.932;10.884;2023-08-08T14:15:30;23.24;45.07
66722;SHT31;53633;49.932;10.884;2023-08-08T14:17:57;22.90;43.93
66722;SHT31;53633;49.932;10.884;2023-08-08T14:20:24;22.76;44.84
66722;SHT31;53633;49.932;10.884;2023-08-08T14:22:51;22.65;44.49
66722;SHT31;53633;49.932;10.884;2023-08-08T14:25:17;22.62;45.03
66722;SHT31;53633;49.932;10.884;2023-08-08T14:27:45;22.59;46.40
66722;SHT31;53633;49.932;10.884;2023-08-08T14:30:12;22.75;45.70
66722;SHT31;53633;49.932;10.884;2023-08-08T14:32:39;22.60;46.66
66722;SHT31;53633;49.932;10.884;2023-08-08T14:35:06;22.32;46.28
66722;SHT31;53633;49.932;10.884;2023-08-08T14:37:33;22.67;46.57
66722;SHT31;53633;49.932;10.884;2023-08-08T14:40:00;22.83;46.18
66722;SHT31;53633;49.932;10.884;2023-08-08T14:42:27;22.63;46.26
66722;SHT31;53633;49.932;10.884;2023-08-08T14:44:55;22.72;46.73
66722;SHT31;53633;49.932;10.884;2023-08-08T14:47:22;22.77;46.79
66722;SHT31;53633;49.932;10.884;2023-08-08T14:49:49;22.42;47.44
66722;SHT31;53633;49.932;10.884;2023-08-08T14:52:16;22.35;47.35
66722;SHT31;53633;49.932;10.884;2023-08-08T14:54:43;22.17;47.04
66722;SHT31;53633;49.932;10.884;2023-08-08T14:57:10;22.27;46.52
66722;SHT31;53633;49.932;10.884;2023-08-08T14:59:37;22.31;46.91
66722;SHT31;53633;49.932;10.884;2023-08-08T15:02:05;22.11;47.81
66722;SHT31;53633;49.932;10.884;2023-08-08T15:04:32;22.02;47.45
66722;SHT31;53633;49.932;10.884;2023-08-08T15:06:59;21.76;47.74
66722;SHT31;53633;49.932;10.884;2023-08-08T15:09:26;21.81;47.89
66722;SHT31;53633;49.932;10.884;2023-08-08T15:11:53;21.73;48.33
66722;SHT31;53633;49.932;10.884;2023-08-08T15:14:19;21.80;47.99
66722;SHT31;53633;49.932;10.884;2023-08-08T15:16:48;21.83;47.91